createdAt,value
2018-01-24T00:01:40.380Z,10.40
2018-01-24T00:03:43.050Z,10.50
2018-01-24T00:05:45.698Z,10.50
2018-01-24T00:07:49.116Z,10.50
2018-01-24T00:09:51.815Z,10.50
2018-01-24T00:11:54.465Z,10.50
2018-01-24T00:13:57.248Z,10.50
2018-01-24T00:16:00.253Z,10.50
2018-01-24T00:18:02.918Z,10.50
2018-01-24T00:20:05.581Z,10.50
2018-01-24T00:22:08.296Z,10.50
2018-01-24T00:24:10.954Z,10.50
2018-01-24T00:26:13.734Z,10.50
2018-01-24T00:28:16.397Z,10.40
2018-01-24T00:30:19.044Z,10.50
2018-01-24T00:32:22.472Z,10.50
2018-01-24T00:34:25.244Z,10.40
2018-01-24T00:36:27.893Z,10.50
2018-01-24T00:38:31.337Z,10.50
2018-01-24T00:40:34.002Z,10.50
2018-01-24T00:42:36.659Z,10.50
2018-01-24T00:44:39.339Z,10.50
2018-01-24T00:46:41.997Z,10.60
2018-01-24T00:48:45.420Z,10.60
2018-01-24T00:50:48.092Z,10.60
2018-01-24T00:52:50.787Z,10.60
2018-01-24T00:54:53.450Z,10.70
2018-01-24T00:56:56.184Z,10.70
2018-01-24T00:58:59.612Z,10.70
2018-01-24T01:01:02.249Z,10.70
2018-01-24T01:03:04.912Z,10.60
2018-01-24T01:05:07.551Z,10.60
2018-01-24T01:07:10.235Z,10.50
2018-01-24T01:09:12.886Z,10.50
2018-01-24T01:11:15.535Z,10.50
2018-01-24T01:13:19.051Z,10.40
2018-01-24T01:15:21.736Z,10.40
2018-01-24T01:17:24.442Z,10.40
2018-01-24T01:19:27.114Z,10.40
2018-01-24T01:21:29.774Z,10.40
2018-01-24T01:23:32.455Z,10.40
2018-01-24T01:25:35.142Z,10.40
2018-01-24T01:27:37.805Z,10.40
2018-01-24T01:29:40.521Z,10.50
2018-01-24T01:31:43.160Z,10.50
2018-01-24T01:33:45.817Z,10.50
2018-01-24T01:35:48.511Z,10.50
2018-01-24T01:37:51.165Z,10.50
2018-01-24T01:39:53.854Z,10.60
2018-01-24T01:41:56.538Z,10.70
2018-01-24T01:43:59.179Z,10.70
2018-01-24T01:46:02.611Z,10.70
2018-01-24T01:48:05.267Z,10.70
2018-01-24T01:50:07.943Z,10.70
2018-01-24T01:52:10.650Z,10.80
2018-01-24T01:54:13.325Z,10.80
2018-01-24T01:56:15.990Z,10.80
2018-01-24T01:58:18.660Z,10.80
2018-01-24T02:00:21.309Z,10.70
2018-01-24T02:02:24.730Z,10.80
2018-01-24T02:04:27.627Z,10.80
2018-01-24T02:06:30.290Z,10.80
2018-01-24T02:08:32.978Z,10.80
2018-01-24T02:10:35.638Z,10.90
2018-01-24T02:12:38.298Z,10.80
2018-01-24T02:14:40.978Z,10.80
2018-01-24T02:16:43.645Z,10.80
2018-01-24T02:18:46.323Z,10.80
2018-01-24T02:20:48.981Z,10.90
2018-01-24T02:22:52.412Z,10.80
2018-01-24T02:24:55.113Z,10.80
2018-01-24T02:26:57.769Z,10.80
2018-01-24T02:29:00.434Z,10.90
2018-01-24T02:31:03.114Z,10.90
2018-01-24T02:33:05.768Z,11.00
2018-01-24T02:35:08.470Z,11.00
2018-01-24T02:37:11.243Z,10.90
2018-01-24T02:39:16.677Z,11.00
2018-01-24T02:41:19.335Z,11.00
2018-01-24T02:43:22.758Z,11.00
2018-01-24T02:45:25.404Z,11.00
2018-01-24T02:47:28.842Z,11.10
2018-01-24T02:49:31.471Z,11.10
2018-01-24T02:51:34.909Z,11.10
2018-01-24T02:53:37.548Z,11.00
2018-01-24T02:55:40.201Z,11.00
2018-01-24T02:57:43.649Z,11.00
2018-01-24T02:59:46.295Z,11.00
2018-01-24T03:01:48.954Z,11.00
2018-01-24T03:03:52.376Z,11.00
2018-01-24T03:05:55.046Z,11.00
2018-01-24T03:07:57.718Z,11.00
2018-01-24T03:10:01.434Z,11.00
2018-01-24T03:12:04.128Z,10.90
2018-01-24T03:14:06.806Z,11.00
2018-01-24T03:16:09.475Z,11.00
2018-01-24T03:18:12.112Z,11.00
2018-01-24T03:20:15.653Z,11.00
2018-01-24T03:22:18.301Z,11.00
2018-01-24T03:24:21.289Z,11.10
2018-01-24T03:26:23.969Z,11.10
2018-01-24T03:28:26.611Z,11.10
2018-01-24T03:30:30.057Z,11.10
2018-01-24T03:32:32.815Z,11.10
2018-01-24T03:34:35.598Z,11.10
2018-01-24T03:36:38.232Z,11.10
2018-01-24T03:38:41.657Z,11.10
2018-01-24T03:40:44.319Z,11.10
2018-01-24T03:42:46.979Z,11.20
2018-01-24T03:44:50.386Z,11.20
2018-01-24T03:46:54.014Z,11.20
2018-01-24T03:48:56.656Z,11.20
2018-01-24T03:51:00.104Z,11.20
2018-01-24T03:53:02.751Z,11.20
2018-01-24T03:55:05.387Z,11.20
2018-01-24T03:57:08.848Z,11.20
2018-01-24T03:59:11.496Z,11.20
2018-01-24T04:01:14.168Z,11.10
2018-01-24T04:03:16.849Z,11.20
2018-01-24T04:05:20.646Z,11.20
2018-01-24T04:07:25.480Z,11.20
2018-01-24T04:09:28.252Z,11.20
2018-01-24T04:11:31.664Z,11.20
2018-01-24T04:13:34.377Z,11.20
2018-01-24T04:15:37.046Z,11.30
2018-01-24T04:17:39.722Z,11.30
2018-01-24T04:19:42.801Z,11.20
2018-01-24T04:24:14.604Z,11.10
2018-01-24T04:26:18.025Z,11.10
2018-01-24T04:28:21.577Z,11.10
2018-01-24T04:30:24.617Z,11.10
2018-01-24T04:32:27.526Z,11.10
2018-01-24T04:34:30.313Z,11.20
2018-01-24T04:36:32.984Z,11.20
2018-01-24T04:38:35.846Z,11.20
2018-01-24T04:40:38.500Z,11.20
2018-01-24T04:42:42.030Z,11.30
2018-01-24T04:44:44.720Z,11.30
2018-01-24T04:46:47.580Z,11.30
2018-01-24T04:48:50.338Z,11.30
2018-01-24T04:50:53.025Z,11.30
2018-01-24T04:52:55.670Z,11.30
2018-01-24T04:54:59.095Z,11.30
2018-01-24T04:57:01.769Z,11.30
2018-01-24T04:59:04.574Z,11.30
2018-01-24T05:01:07.242Z,11.40
2018-01-24T05:03:10.126Z,11.30
2018-01-24T05:05:12.886Z,11.30
2018-01-24T05:07:15.596Z,11.30
2018-01-24T05:09:18.256Z,11.40
2018-01-24T05:11:20.927Z,11.40
2018-01-24T05:13:23.622Z,11.40
2018-01-24T05:15:26.472Z,11.30
2018-01-24T05:17:29.231Z,11.30
2018-01-24T05:19:32.840Z,11.30
2018-01-24T05:21:36.111Z,11.40
2018-01-24T05:23:39.758Z,11.30
2018-01-24T05:25:42.419Z,11.30
2018-01-24T05:27:45.066Z,11.20
2018-01-24T05:29:48.551Z,11.10
2018-01-24T05:31:51.974Z,11.10
2018-01-24T05:33:54.636Z,11.10
2018-01-24T05:35:58.150Z,11.10
2018-01-24T05:38:00.815Z,11.10
2018-01-24T05:40:03.517Z,11.20
2018-01-24T05:42:06.209Z,11.10
2018-01-24T05:44:08.848Z,11.20
2018-01-24T05:46:11.552Z,11.20
2018-01-24T05:48:14.210Z,11.30
2018-01-24T05:50:16.879Z,11.30
2018-01-24T05:52:19.548Z,11.30
2018-01-24T05:54:22.171Z,11.30
2018-01-24T05:56:24.808Z,11.30
2018-01-24T05:58:27.490Z,11.30
2018-01-24T06:00:30.154Z,11.30
2018-01-24T06:02:32.809Z,11.40
2018-01-24T06:04:36.256Z,11.40
2018-01-24T06:06:38.991Z,11.40
2018-01-24T06:08:42.409Z,11.30
2018-01-24T06:10:45.102Z,11.30
2018-01-24T06:12:47.781Z,11.20
2018-01-24T06:14:50.446Z,11.20
2018-01-24T06:16:53.104Z,11.20
2018-01-24T06:18:55.763Z,11.10
2018-01-24T06:20:59.212Z,11.10
2018-01-24T06:23:01.878Z,11.10
2018-01-24T06:25:04.529Z,11.20
2018-01-24T06:27:07.208Z,11.10
2018-01-24T06:29:09.858Z,11.10
2018-01-24T06:31:13.378Z,11.20
2018-01-24T06:33:16.061Z,11.20
2018-01-24T06:35:18.722Z,11.20
2018-01-24T06:37:21.420Z,11.20
2018-01-24T06:39:24.091Z,11.20
2018-01-24T06:41:26.754Z,11.10
2018-01-24T06:43:29.396Z,11.20
2018-01-24T06:45:32.852Z,11.30
2018-01-24T06:47:35.510Z,11.30
2018-01-24T06:49:38.155Z,11.30
2018-01-24T06:51:41.650Z,11.40
2018-01-24T06:53:44.309Z,11.40
2018-01-24T06:55:46.961Z,11.30
2018-01-24T06:57:50.031Z,11.30
2018-01-24T06:59:52.679Z,11.30
2018-01-24T07:01:55.345Z,11.40
2018-01-24T07:03:58.026Z,11.50
2018-01-24T07:06:00.673Z,11.40
2018-01-24T07:08:04.115Z,11.50
2018-01-24T07:10:08.127Z,11.50
2018-01-24T07:12:22.805Z,11.50
2018-01-24T07:14:37.370Z,11.50
2018-01-24T07:16:40.018Z,11.50
2018-01-24T07:18:42.672Z,11.50
2018-01-24T07:20:45.355Z,11.50
2018-01-24T07:22:48.045Z,11.50
2018-01-24T07:24:50.712Z,11.50
2018-01-24T07:26:53.386Z,11.50
2018-01-24T07:28:56.561Z,11.50
2018-01-24T07:30:59.252Z,11.50
2018-01-24T07:33:01.888Z,11.60
2018-01-24T07:35:05.333Z,11.50
2018-01-24T07:37:08.004Z,11.50
2018-01-24T07:39:10.647Z,11.60
2018-01-24T07:41:14.056Z,11.60
2018-01-24T07:43:16.750Z,11.60
2018-01-24T07:45:19.410Z,11.60
2018-01-24T07:47:22.076Z,11.60
2018-01-24T07:49:24.741Z,11.60
2018-01-24T07:51:28.168Z,11.70
2018-01-24T07:53:30.843Z,11.70
2018-01-24T07:55:33.507Z,11.70
2018-01-24T07:57:36.196Z,11.70
2018-01-24T07:59:38.857Z,11.70
2018-01-24T08:01:41.536Z,11.80
2018-01-24T08:03:44.220Z,11.80
2018-01-24T08:05:46.888Z,11.80
2018-01-24T08:07:49.536Z,11.90
2018-01-24T08:09:53.010Z,11.80
2018-01-24T08:11:55.667Z,11.90
2018-01-24T08:13:58.333Z,11.90
2018-01-24T08:16:00.969Z,11.90
2018-01-24T08:18:03.703Z,11.90
2018-01-24T08:20:06.358Z,11.90
2018-01-24T08:22:09.016Z,11.90
2018-01-24T08:24:11.685Z,12.00
2018-01-24T08:26:14.325Z,12.00
2018-01-24T08:28:16.961Z,12.00
2018-01-24T08:30:19.648Z,12.00
2018-01-24T08:32:22.310Z,12.00
2018-01-24T08:34:24.960Z,12.00
2018-01-24T08:36:27.685Z,12.00
2018-01-24T08:38:30.336Z,12.00
2018-01-24T08:40:32.980Z,12.00
2018-01-24T08:42:35.668Z,12.00
2018-01-24T08:44:38.308Z,12.00
2018-01-24T08:46:40.943Z,12.00
2018-01-24T08:48:43.612Z,12.10
2018-01-24T08:50:46.261Z,12.10
2018-01-24T08:52:48.900Z,12.10
2018-01-24T08:54:51.593Z,12.20
2018-01-24T08:56:55.025Z,12.10
2018-01-24T08:58:57.981Z,12.10
2018-01-24T09:01:01.431Z,12.10
2018-01-24T09:03:04.083Z,12.10
2018-01-24T09:05:06.724Z,12.10
2018-01-24T09:07:10.182Z,12.20
2018-01-24T09:09:12.891Z,12.20
2018-01-24T09:11:16.302Z,12.30
2018-01-24T09:13:18.988Z,12.30
2018-01-24T09:15:21.637Z,12.30
2018-01-24T09:17:25.142Z,12.40
2018-01-24T09:19:28.591Z,12.50
2018-01-24T09:21:31.246Z,12.50
2018-01-24T09:23:33.887Z,12.60
2018-01-24T09:25:36.583Z,12.60
2018-01-24T09:27:39.223Z,12.70
2018-01-24T09:29:42.701Z,12.90
2018-01-24T09:31:46.158Z,12.90
2018-01-24T09:33:49.130Z,13.00
2018-01-24T09:35:51.804Z,12.90
2018-01-24T09:37:54.544Z,12.90
2018-01-24T09:39:57.235Z,12.80
2018-01-24T09:42:00.689Z,12.80
2018-01-24T09:44:03.382Z,12.70
2018-01-24T09:46:06.048Z,12.90
2018-01-24T09:48:08.737Z,13.30
2018-01-24T09:50:11.388Z,13.30
2018-01-24T09:52:14.047Z,13.30
2018-01-24T09:54:16.759Z,13.10
2018-01-24T09:56:19.456Z,13.00
2018-01-24T09:58:22.888Z,13.20
2018-01-24T10:00:25.584Z,13.20
2018-01-24T10:02:28.234Z,13.30
2018-01-24T10:04:30.907Z,13.40
2018-01-24T10:06:33.564Z,13.40
2018-01-24T10:08:36.990Z,13.30
2018-01-24T10:10:39.806Z,13.30
2018-01-24T10:12:42.464Z,13.30
2018-01-24T10:14:45.140Z,13.40
2018-01-24T10:16:47.814Z,13.80
2018-01-24T10:18:50.474Z,14.30
2018-01-24T10:20:53.200Z,14.10
2018-01-24T10:22:55.862Z,13.90
2018-01-24T10:24:58.549Z,13.80
2018-01-24T10:27:01.229Z,13.80
2018-01-24T10:29:03.935Z,14.00
2018-01-24T10:31:06.588Z,14.00
2018-01-24T10:33:10.048Z,14.10
2018-01-24T10:35:12.704Z,14.10
2018-01-24T10:37:15.353Z,14.30
2018-01-24T10:39:18.110Z,14.80
2018-01-24T10:41:21.521Z,15.30
2018-01-24T10:43:24.196Z,15.30
2018-01-24T10:45:27.614Z,14.60
2018-01-24T10:47:30.281Z,14.50
2018-01-24T10:49:32.960Z,14.30
2018-01-24T10:51:35.612Z,14.10
2018-01-24T10:53:39.035Z,14.00
2018-01-24T10:55:41.732Z,14.00
2018-01-24T10:57:44.387Z,14.10
2018-01-24T10:59:47.042Z,14.10
2018-01-24T11:01:49.731Z,14.10
2018-01-24T11:03:52.467Z,14.10
2018-01-24T11:05:55.188Z,14.00
2018-01-24T11:07:57.871Z,13.90
2018-01-24T11:10:00.539Z,13.90
2018-01-24T11:12:03.196Z,13.90
2018-01-24T11:14:06.648Z,13.90
2018-01-24T11:16:09.616Z,13.90
2018-01-24T11:18:12.283Z,14.00
2018-01-24T11:20:14.971Z,14.00
2018-01-24T11:22:17.809Z,14.00
2018-01-24T11:24:20.503Z,13.90
2018-01-24T11:26:23.158Z,13.90
2018-01-24T11:28:26.569Z,13.80
2018-01-24T11:30:29.242Z,13.90
2018-01-24T11:32:31.875Z,13.90
2018-01-24T11:34:34.527Z,13.90
2018-01-24T11:36:37.239Z,14.10
2018-01-24T11:38:40.674Z,14.10
2018-01-24T11:40:43.350Z,14.10
2018-01-24T11:42:46.030Z,14.10
2018-01-24T11:44:48.686Z,14.10
2018-01-24T11:46:51.335Z,14.10
2018-01-24T11:48:54.003Z,14.10
2018-01-24T11:50:56.662Z,14.10
2018-01-24T11:52:59.318Z,14.00
2018-01-24T11:55:01.990Z,14.10
2018-01-24T11:57:04.650Z,14.10
2018-01-24T11:59:07.312Z,14.10
2018-01-24T12:01:10.005Z,14.30
2018-01-24T12:03:12.653Z,14.30
2018-01-24T12:05:16.215Z,14.40
2018-01-24T12:07:18.853Z,14.40
2018-01-24T12:09:21.590Z,14.50
2018-01-24T12:11:25.327Z,14.50
2018-01-24T12:13:27.986Z,14.40
2018-01-24T12:15:31.623Z,14.30
2018-01-24T12:17:34.272Z,14.30
2018-01-24T12:19:36.916Z,14.40
2018-01-24T12:21:39.603Z,14.40
2018-01-24T12:23:43.019Z,14.60
2018-01-24T12:25:45.724Z,14.60
2018-01-24T12:27:48.422Z,14.50
2018-01-24T12:29:51.061Z,14.50
2018-01-24T12:31:53.745Z,14.40
2018-01-24T12:33:56.405Z,14.40
2018-01-24T12:35:59.055Z,14.30
2018-01-24T12:38:02.503Z,14.30
2018-01-24T12:40:05.144Z,14.30
2018-01-24T12:42:07.801Z,14.20
2018-01-24T12:44:11.237Z,14.10
2018-01-24T12:46:13.872Z,14.10
2018-01-24T12:48:17.303Z,14.10
2018-01-24T12:50:19.953Z,14.10
2018-01-24T12:52:22.607Z,14.00
2018-01-24T12:54:26.043Z,14.00
2018-01-24T12:56:28.797Z,14.00
2018-01-24T12:58:31.496Z,13.90
2018-01-24T13:00:34.291Z,13.90
2018-01-24T13:02:36.949Z,13.90
2018-01-24T13:04:39.637Z,14.00
2018-01-24T13:06:43.289Z,13.90
2018-01-24T13:08:46.909Z,13.90
2018-01-24T13:10:49.579Z,13.90
2018-01-24T13:12:54.476Z,13.80
2018-01-24T13:14:57.184Z,13.90
2018-01-24T13:16:59.827Z,13.70
2018-01-24T13:19:02.519Z,13.70
2018-01-24T13:21:05.948Z,13.60
2018-01-24T13:23:08.602Z,13.50
2018-01-24T13:25:11.281Z,13.50
2018-01-24T13:27:14.706Z,13.50
2018-01-24T13:29:17.348Z,13.50
2018-01-24T13:31:20.038Z,13.50
2018-01-24T13:33:22.690Z,13.50
2018-01-24T13:35:26.133Z,13.40
2018-01-24T13:37:28.787Z,13.40
2018-01-24T13:39:31.431Z,13.50
2018-01-24T13:41:34.941Z,13.60
2018-01-24T13:43:38.444Z,13.60
2018-01-24T13:45:41.087Z,13.60
2018-01-24T13:47:43.748Z,13.60
2018-01-24T13:49:46.442Z,13.50
2018-01-24T13:51:49.089Z,13.50
2018-01-24T13:53:51.881Z,13.40
2018-01-24T13:55:54.521Z,13.40
2018-01-24T13:57:57.190Z,13.40
2018-01-24T13:59:59.860Z,13.40
2018-01-24T14:02:02.511Z,13.40
2018-01-24T14:04:05.292Z,13.40
2018-01-24T14:06:08.710Z,13.40
2018-01-24T14:08:11.374Z,13.40
2018-01-24T14:10:14.046Z,13.40
2018-01-24T14:12:17.467Z,13.30
2018-01-24T14:14:20.168Z,13.30
2018-01-24T14:16:23.630Z,13.30
2018-01-24T14:18:26.305Z,13.30
2018-01-24T14:20:28.983Z,13.20
2018-01-24T14:22:31.629Z,13.30
2018-01-24T14:24:35.064Z,13.20
2018-01-24T14:26:37.736Z,13.20
2018-01-24T14:28:40.371Z,13.20
2018-01-24T14:30:43.829Z,13.10
2018-01-24T14:32:46.502Z,13.10
2018-01-24T14:34:49.147Z,13.10
2018-01-24T14:36:51.824Z,13.10
2018-01-24T14:38:54.510Z,13.10
2018-01-24T14:40:57.169Z,13.10
2018-01-24T14:42:59.847Z,13.00
2018-01-24T14:45:02.507Z,13.00
2018-01-24T14:47:05.924Z,13.10
2018-01-24T14:49:08.608Z,13.00
2018-01-24T14:51:11.269Z,13.00
2018-01-24T14:53:13.905Z,13.00
2018-01-24T14:55:16.586Z,13.00
2018-01-24T14:57:19.996Z,13.00
2018-01-24T14:59:23.568Z,13.00
2018-01-24T15:01:26.242Z,13.00
2018-01-24T15:03:28.907Z,12.90
2018-01-24T15:05:31.554Z,12.90
2018-01-24T15:07:34.283Z,12.80
2018-01-24T15:09:36.932Z,12.80
2018-01-24T15:11:39.569Z,12.70
2018-01-24T15:13:43.019Z,12.60
2018-01-24T15:15:45.675Z,12.60
2018-01-24T15:17:48.362Z,12.60
2018-01-24T15:19:51.037Z,12.60
2018-01-24T15:21:53.700Z,12.70
2018-01-24T15:23:57.184Z,12.60
2018-01-24T15:25:59.911Z,12.50
2018-01-24T15:28:03.379Z,12.60
2018-01-24T15:30:06.319Z,12.60
2018-01-24T15:32:08.968Z,12.70
2018-01-24T15:34:12.398Z,12.80
2018-01-24T15:36:15.309Z,12.80
2018-01-24T15:38:18.305Z,12.80
2018-01-24T15:40:21.043Z,12.80
2018-01-24T15:42:23.698Z,12.90
2018-01-24T15:44:26.388Z,12.90
2018-01-24T15:46:29.086Z,13.00
2018-01-24T15:48:31.763Z,13.00
2018-01-24T15:50:34.427Z,13.00
2018-01-24T15:52:37.106Z,13.00
2018-01-24T15:54:39.962Z,13.00
2018-01-24T15:56:42.643Z,13.00
2018-01-24T15:58:45.302Z,12.90
2018-01-24T16:00:48.700Z,13.00
2018-01-24T16:02:51.370Z,13.00
2018-01-24T16:04:54.055Z,13.00
2018-01-24T16:06:56.710Z,12.90
2018-01-24T16:09:00.108Z,12.80
2018-01-24T16:11:03.549Z,12.80
2018-01-24T16:13:06.196Z,12.80
2018-01-24T16:15:08.931Z,12.90
2018-01-24T16:17:11.801Z,12.90
2018-01-24T16:19:14.490Z,12.90
2018-01-24T16:21:17.212Z,12.80
2018-01-24T16:23:19.892Z,12.80
2018-01-24T16:25:22.583Z,12.80
2018-01-24T16:27:25.251Z,12.70
2018-01-24T16:29:27.967Z,12.80
2018-01-24T16:31:30.697Z,12.70
2018-01-24T16:33:33.349Z,12.70
2018-01-24T16:35:36.803Z,12.60
2018-01-24T16:37:39.528Z,12.60
2018-01-24T16:39:42.181Z,12.70
2018-01-24T16:41:44.907Z,12.70
2018-01-24T16:43:47.604Z,12.60
2018-01-24T16:45:51.282Z,12.60
2018-01-24T16:47:53.978Z,12.60
2018-01-24T16:49:56.620Z,12.50
2018-01-24T16:51:59.281Z,12.60
2018-01-24T16:54:02.703Z,12.60
2018-01-24T16:56:05.353Z,12.50
2018-01-24T16:58:08.037Z,12.60
2018-01-24T17:00:10.685Z,12.60
2018-01-24T17:02:13.460Z,12.50
2018-01-24T17:04:16.170Z,12.50
2018-01-24T17:06:18.954Z,12.50
2018-01-24T17:08:21.596Z,12.50
2018-01-24T17:10:25.062Z,12.40
2018-01-24T17:12:27.714Z,12.50
2018-01-24T17:14:30.714Z,12.50
2018-01-24T17:16:33.438Z,12.50
2018-01-24T17:18:36.844Z,12.40
2018-01-24T17:20:39.501Z,12.50
2018-01-24T17:22:42.952Z,12.40
2018-01-24T17:24:45.686Z,12.40
2018-01-24T17:26:48.351Z,12.40
2018-01-24T17:28:51.793Z,12.40
2018-01-24T17:30:54.434Z,12.40
2018-01-24T17:32:57.090Z,12.40
2018-01-24T17:35:00.529Z,12.40
2018-01-24T17:37:03.179Z,12.40
2018-01-24T17:39:05.853Z,12.50
2018-01-24T17:41:08.536Z,12.40
2018-01-24T17:43:11.186Z,12.40
2018-01-24T17:45:14.974Z,12.40
2018-01-24T17:47:18.459Z,12.30
2018-01-24T17:49:21.202Z,12.30
2018-01-24T17:51:23.981Z,12.30
2018-01-24T17:53:26.713Z,12.30
2018-01-24T17:55:29.426Z,12.20
2018-01-24T17:57:32.118Z,12.30
2018-01-24T17:59:34.766Z,12.30
2018-01-24T18:01:38.167Z,12.30
2018-01-24T18:03:40.858Z,12.30
2018-01-24T18:05:43.520Z,12.30
2018-01-24T18:07:46.175Z,12.30
2018-01-24T18:09:49.595Z,12.20
2018-01-24T18:11:52.291Z,12.20
2018-01-24T18:13:55.036Z,12.20
2018-01-24T18:15:57.705Z,12.10
2018-01-24T18:18:01.097Z,12.20
2018-01-24T18:20:04.560Z,12.20
2018-01-24T18:22:07.503Z,12.20
2018-01-24T18:24:10.167Z,12.20
2018-01-24T18:26:12.951Z,12.30
2018-01-24T18:28:15.670Z,12.20
2018-01-24T18:30:18.606Z,12.30
2018-01-24T18:32:21.283Z,12.20
2018-01-24T18:34:23.933Z,12.20
2018-01-24T18:36:27.466Z,12.20
2018-01-24T18:38:30.125Z,12.20
2018-01-24T18:40:32.821Z,12.20
2018-01-24T18:42:35.529Z,12.20
2018-01-24T18:44:52.061Z,12.20
2018-01-24T18:46:55.538Z,12.30
2018-01-24T18:48:58.263Z,12.30
2018-01-24T18:51:01.864Z,12.30
2018-01-24T18:53:04.572Z,12.20
2018-01-24T18:55:07.279Z,12.20
2018-01-24T18:57:10.913Z,12.10
2018-01-24T18:59:13.632Z,12.10
2018-01-24T19:01:17.118Z,12.20
2018-01-24T19:03:20.064Z,12.20
2018-01-24T19:05:22.773Z,12.20
2018-01-24T19:07:25.480Z,12.20
2018-01-24T19:09:28.144Z,12.20
2018-01-24T19:11:31.784Z,12.20
2018-01-24T19:13:34.563Z,12.10
2018-01-24T19:15:37.236Z,12.20
2018-01-24T19:17:40.031Z,12.20
2018-01-24T19:19:42.676Z,12.20
2018-01-24T19:21:46.118Z,12.10
2018-01-24T19:23:48.801Z,12.10
2018-01-24T19:25:53.693Z,12.10
2018-01-24T19:27:56.538Z,12.10
2018-01-24T19:29:59.272Z,12.20
2018-01-24T19:32:01.994Z,12.20
2018-01-24T19:34:04.720Z,12.20
2018-01-24T19:36:07.427Z,12.20
2018-01-24T19:38:10.080Z,12.10
2018-01-24T19:40:12.776Z,12.10
2018-01-24T19:42:15.434Z,12.10
2018-01-24T19:44:18.193Z,12.10
2018-01-24T19:46:20.902Z,12.10
2018-01-24T19:48:23.548Z,12.10
2018-01-24T19:50:26.234Z,12.20
2018-01-24T19:52:28.994Z,12.20
2018-01-24T19:54:31.679Z,12.20
2018-01-24T19:56:34.368Z,12.20
2018-01-24T19:58:37.016Z,12.10
2018-01-24T20:00:39.681Z,12.10
2018-01-24T20:02:43.203Z,12.10
2018-01-24T20:04:45.858Z,12.10
2018-01-24T20:06:49.285Z,12.20
2018-01-24T20:08:51.951Z,12.10
2018-01-24T20:10:54.764Z,12.10
2018-01-24T20:12:57.441Z,12.10
2018-01-24T20:15:00.115Z,12.10
2018-01-24T20:17:02.810Z,12.00
2018-01-24T20:19:05.477Z,12.00
2018-01-24T20:21:08.144Z,12.00
2018-01-24T20:23:10.810Z,12.00
2018-01-24T20:25:13.490Z,12.00
2018-01-24T20:27:16.194Z,12.00
2018-01-24T20:29:18.846Z,12.00
2018-01-24T20:31:21.750Z,12.00
2018-01-24T20:33:24.426Z,12.00
2018-01-24T20:35:27.070Z,12.00
2018-01-24T20:37:29.736Z,12.00
2018-01-24T20:39:32.399Z,11.90
2018-01-24T20:41:35.268Z,11.90
2018-01-24T20:43:37.937Z,12.00
2018-01-24T20:45:40.926Z,12.00
2018-01-24T20:47:44.129Z,12.00
2018-01-24T20:49:46.910Z,11.90
2018-01-24T20:51:49.818Z,11.90
2018-01-24T20:53:52.610Z,11.90
2018-01-24T20:55:55.271Z,12.00
2018-01-24T20:57:58.701Z,11.90
2018-01-24T21:00:02.131Z,11.90
2018-01-24T21:02:05.254Z,11.90
2018-01-24T21:04:08.013Z,11.90
2018-01-24T21:06:10.687Z,11.90
2018-01-24T21:08:13.319Z,11.90
2018-01-24T21:10:16.880Z,11.90
2018-01-24T21:12:19.700Z,11.90
2018-01-24T21:14:23.204Z,11.90
2018-01-24T21:16:25.921Z,11.90
2018-01-24T21:18:28.597Z,11.90
2018-01-24T21:20:31.330Z,11.90
2018-01-24T21:22:34.142Z,11.90
2018-01-24T21:24:36.793Z,12.00
2018-01-24T21:26:39.591Z,11.90
2018-01-24T21:31:44.935Z,11.80
2018-01-24T21:33:49.532Z,11.80
2018-01-24T21:36:01.888Z,11.90
2018-01-24T21:38:04.776Z,11.80
2018-01-24T21:40:07.455Z,11.90
2018-01-24T21:42:10.130Z,11.90
2018-01-24T21:44:12.818Z,12.00
2018-01-24T21:46:15.491Z,12.00
2018-01-24T21:48:18.172Z,12.00
2018-01-24T21:50:20.820Z,12.00
2018-01-24T21:52:23.487Z,12.00
2018-01-24T21:54:26.180Z,12.00
2018-01-24T21:56:28.835Z,12.00
2018-01-24T21:58:31.597Z,12.00
2018-01-24T22:00:34.273Z,12.00
2018-01-24T22:02:36.954Z,12.00
2018-01-24T22:04:39.657Z,12.00
2018-01-24T22:06:42.332Z,12.00
2018-01-24T22:08:44.998Z,12.00
2018-01-24T22:10:47.791Z,12.00
2018-01-24T22:12:50.475Z,12.00
2018-01-24T22:14:53.138Z,11.90
2018-01-24T22:16:55.771Z,12.00
2018-01-24T22:18:59.199Z,11.90
2018-01-24T22:21:01.854Z,11.90
2018-01-24T22:23:04.525Z,11.90
2018-01-24T22:25:08.030Z,11.90
2018-01-24T22:27:10.689Z,11.80
2018-01-24T22:29:14.151Z,11.80
2018-01-24T22:31:16.836Z,11.80
2018-01-24T22:33:19.476Z,11.80
2018-01-24T22:35:22.328Z,11.80
2018-01-24T22:37:24.984Z,11.70
2018-01-24T22:39:28.400Z,11.70
2018-01-24T22:41:31.326Z,11.70
2018-01-24T22:43:34.776Z,11.80
2018-01-24T22:45:37.441Z,11.80
2018-01-24T22:47:40.894Z,11.80
2018-01-24T22:49:43.536Z,11.70
2018-01-24T22:51:46.189Z,11.70
2018-01-24T22:53:48.908Z,11.70
2018-01-24T22:55:51.574Z,11.70
2018-01-24T22:57:54.316Z,11.70
2018-01-24T22:59:57.767Z,11.80
2018-01-24T23:02:00.413Z,11.70
2018-01-24T23:04:03.090Z,11.80
2018-01-24T23:06:05.772Z,11.80
2018-01-24T23:08:08.450Z,11.70
2018-01-24T23:10:11.113Z,11.70
2018-01-24T23:12:13.796Z,11.70
2018-01-24T23:14:16.467Z,11.60
2018-01-24T23:16:19.228Z,11.60
2018-01-24T23:18:21.892Z,11.50
2018-01-24T23:20:25.311Z,11.40
2018-01-24T23:22:27.954Z,11.40
2018-01-24T23:24:31.401Z,11.20
2018-01-24T23:26:34.062Z,11.20
2018-01-24T23:28:36.710Z,11.10
2018-01-24T23:30:40.149Z,11.00
2018-01-24T23:32:42.807Z,11.00
2018-01-24T23:34:45.582Z,11.00
2018-01-24T23:36:48.271Z,10.90
2018-01-24T23:38:50.943Z,10.90
2018-01-24T23:40:53.621Z,10.90
2018-01-24T23:42:56.261Z,10.80
2018-01-24T23:44:59.703Z,9.70
2018-01-24T23:47:02.377Z,9.60
2018-01-24T23:49:05.040Z,9.50
2018-01-24T23:51:07.695Z,9.30
2018-01-24T23:53:10.406Z,9.30
2018-01-24T23:55:13.070Z,9.10
2018-01-24T23:57:15.714Z,9.00
2018-01-24T23:59:19.153Z,9.10
